createdAt,value
2018-11-28T00:00:36.866Z,80.76
2018-11-28T00:03:08.118Z,80.50
2018-11-28T00:05:37.328Z,81.15
2018-11-28T00:08:06.553Z,81.00
2018-11-28T00:10:35.733Z,81.43
2018-11-28T00:13:05.059Z,81.16
2018-11-28T00:15:34.280Z,80.51
2018-11-28T00:18:03.611Z,80.97
2018-11-28T00:20:33.140Z,80.79
2018-11-28T00:23:02.367Z,81.01
2018-11-28T00:25:31.593Z,81.24
2018-11-28T00:28:00.772Z,81.09
2018-11-28T00:30:30.187Z,81.15
2018-11-28T00:32:59.462Z,81.03
2018-11-28T00:35:29.143Z,80.62
2018-11-28T00:37:58.378Z,79.96
2018-11-28T00:40:27.564Z,79.66
2018-11-28T00:42:56.757Z,79.35
2018-11-28T00:45:26.333Z,79.96
2018-11-28T00:47:55.515Z,79.44
2018-11-28T00:50:26.498Z,79.16
2018-11-28T00:52:55.721Z,79.10
2018-11-28T00:55:24.919Z,78.49
2018-11-28T00:57:54.088Z,78.03
2018-11-28T01:00:27.351Z,78.68
2018-11-28T01:02:56.482Z,78.72
2018-11-28T01:05:25.750Z,78.35
2018-11-28T01:07:56.043Z,78.92
2018-11-28T01:10:25.980Z,78.80
2018-11-28T01:12:55.610Z,78.56
2018-11-28T01:15:24.825Z,78.87
2018-11-28T01:17:54.035Z,78.74
2018-11-28T01:20:24.126Z,77.73
2018-11-28T01:22:53.252Z,77.91
2018-11-28T01:25:23.113Z,76.89
2018-11-28T01:27:52.595Z,77.38
2018-11-28T01:30:24.400Z,77.94
2018-11-28T01:32:53.631Z,78.53
2018-11-28T01:35:23.211Z,77.87
2018-11-28T01:37:52.420Z,78.16
2018-11-28T01:40:23.539Z,77.36
2018-11-28T01:42:53.187Z,77.80
2018-11-28T01:45:23.601Z,77.50
2018-11-28T01:47:52.809Z,78.43
2018-11-28T01:50:22.689Z,79.13
2018-11-28T01:52:51.907Z,78.94
2018-11-28T01:55:22.409Z,78.71
2018-11-28T01:57:52.052Z,79.27
2018-11-28T02:00:26.355Z,79.06
2018-11-28T02:02:59.246Z,79.56
2018-11-28T02:05:28.399Z,79.31
2018-11-28T02:07:57.579Z,80.13
2018-11-28T02:10:26.745Z,79.86
2018-11-28T02:12:56.007Z,78.55
2018-11-28T02:15:27.272Z,78.62
2018-11-28T02:17:58.264Z,78.24
2018-11-28T02:20:27.531Z,78.80
2018-11-28T02:22:56.832Z,80.02
2018-11-28T02:25:25.983Z,79.78
2018-11-28T02:27:55.170Z,80.07
2018-11-28T02:30:24.431Z,80.58
2018-11-28T02:32:53.629Z,81.05
2018-11-28T02:35:22.806Z,80.91
2018-11-28T02:37:52.016Z,81.10
2018-11-28T02:40:21.472Z,80.50
2018-11-28T02:42:51.199Z,80.75
2018-11-28T02:45:21.859Z,81.18
2018-11-28T02:47:52.264Z,81.44
2018-11-28T02:50:21.477Z,80.84
2018-11-28T02:52:50.676Z,80.59
2018-11-28T02:55:20.005Z,80.97
2018-11-28T02:57:50.827Z,80.69
2018-11-28T03:00:22.782Z,81.29
2018-11-28T03:02:52.085Z,80.91
2018-11-28T03:05:21.563Z,81.46
2018-11-28T03:07:50.715Z,81.56
2018-11-28T03:10:21.658Z,81.05
2018-11-28T03:12:51.055Z,81.87
2018-11-28T03:15:26.528Z,81.52
2018-11-28T03:17:55.771Z,80.82
2018-11-28T03:20:25.077Z,81.57
2018-11-28T03:22:54.214Z,81.56
2018-11-28T03:25:23.496Z,81.29
2018-11-28T03:27:52.678Z,81.89
2018-11-28T03:30:21.820Z,81.92
2018-11-28T03:32:51.085Z,82.18
2018-11-28T03:35:21.776Z,81.56
2018-11-28T03:37:49.355Z,81.51
2018-11-28T03:40:18.561Z,81.38
2018-11-28T03:42:47.744Z,81.72
2018-11-28T03:45:17.539Z,82.23
2018-11-28T03:47:47.048Z,81.98
2018-11-28T03:50:16.673Z,81.15
2018-11-28T03:52:45.877Z,81.88
2018-11-28T03:55:16.252Z,81.86
2018-11-28T03:57:47.150Z,81.83
2018-11-28T04:00:20.608Z,82.69
2018-11-28T04:02:50.519Z,82.71
2018-11-28T04:05:19.649Z,82.60
2018-11-28T04:07:48.854Z,81.62
2018-11-28T04:10:18.025Z,82.04
2018-11-28T04:12:47.233Z,82.33
2018-11-28T04:15:21.637Z,81.60
2018-11-28T04:17:50.857Z,81.96
2018-11-28T04:20:21.479Z,82.35
2018-11-28T04:22:50.672Z,81.60
2018-11-28T04:25:23.720Z,81.67
2018-11-28T04:27:53.284Z,81.33
2018-11-28T04:30:24.015Z,80.72
2018-11-28T04:32:54.755Z,80.23
2018-11-28T04:35:24.128Z,81.51
2018-11-28T04:37:53.303Z,81.84
2018-11-28T04:40:22.809Z,81.52
2018-11-28T04:42:51.952Z,81.46
2018-11-28T04:45:23.441Z,81.58
2018-11-28T04:47:54.375Z,81.83
2018-11-28T04:50:23.572Z,82.34
2018-11-28T04:52:52.740Z,81.79
2018-11-28T04:55:22.029Z,81.86
2018-11-28T04:57:51.176Z,81.51
2018-11-28T05:00:23.841Z,81.47
2018-11-28T05:02:56.466Z,81.31
2018-11-28T05:05:25.661Z,80.80
2018-11-28T05:07:56.063Z,81.28
2018-11-28T05:17:32.795Z,81.76
2018-11-28T05:20:02.102Z,82.04
2018-11-28T05:22:31.320Z,81.36
2018-11-28T05:25:00.521Z,81.84
2018-11-28T05:27:29.797Z,81.59
2018-11-28T05:29:58.963Z,81.24
2018-11-28T05:32:28.311Z,81.99
2018-11-28T05:34:57.502Z,82.02
2018-11-28T05:37:26.713Z,82.15
2018-11-28T05:39:55.895Z,82.20
2018-11-28T05:42:25.093Z,82.55
2018-11-28T05:44:54.306Z,81.91
2018-11-28T05:47:23.456Z,82.05
2018-11-28T05:49:52.692Z,81.77
2018-11-28T05:52:21.843Z,81.40
2018-11-28T05:54:51.002Z,82.09
2018-11-28T05:57:20.187Z,82.01
2018-11-28T05:59:49.384Z,81.84
2018-11-28T06:02:18.592Z,82.61
2018-11-28T06:04:47.883Z,83.34
2018-11-28T06:07:17.076Z,82.77
2018-11-28T06:09:46.241Z,83.56
2018-11-28T06:12:15.404Z,83.47
2018-11-28T06:14:44.547Z,83.68
2018-11-28T06:17:13.859Z,83.31
2018-11-28T06:19:43.172Z,84.55
2018-11-28T06:22:12.339Z,84.14
2018-11-28T06:24:41.776Z,83.95
2018-11-28T06:27:10.968Z,83.99
2018-11-28T06:29:40.120Z,83.70
2018-11-28T06:32:09.361Z,83.56
2018-11-28T06:34:38.515Z,83.11
2018-11-28T06:37:07.907Z,83.30
2018-11-28T06:39:37.060Z,84.60
2018-11-28T06:42:06.740Z,84.22
2018-11-28T06:44:35.901Z,84.76
2018-11-28T06:47:05.364Z,85.57
2018-11-28T06:49:34.544Z,85.23
2018-11-28T06:52:03.765Z,86.33
2018-11-28T06:54:32.939Z,85.59
2018-11-28T06:57:02.179Z,85.66
2018-11-28T06:59:31.361Z,84.82
2018-11-28T07:02:00.532Z,85.26
2018-11-28T07:04:29.699Z,84.41
2018-11-28T07:06:58.866Z,83.58
2018-11-28T07:09:28.035Z,83.91
2018-11-28T07:11:57.356Z,84.86
2018-11-28T07:14:26.550Z,84.77
2018-11-28T07:16:55.755Z,84.34
2018-11-28T07:19:24.942Z,84.49
2018-11-28T07:21:54.169Z,84.33
2018-11-28T07:24:23.361Z,84.07
2018-11-28T07:26:52.539Z,83.78
2018-11-28T07:29:21.837Z,83.58
2018-11-28T07:31:51.039Z,83.86
2018-11-28T07:34:20.230Z,83.79
2018-11-28T07:36:49.432Z,84.25
2018-11-28T07:39:18.585Z,83.60
2018-11-28T07:41:47.770Z,83.84
2018-11-28T07:44:16.916Z,83.90
2018-11-28T07:46:46.120Z,84.01
2018-11-28T07:49:15.307Z,83.93
2018-11-28T07:51:44.508Z,84.03
2018-11-28T07:54:13.651Z,84.00
2018-11-28T07:56:42.838Z,83.57
2018-11-28T07:59:12.000Z,83.34
2018-11-28T08:01:41.207Z,84.01
2018-11-28T08:04:10.420Z,84.75
2018-11-28T08:06:39.646Z,84.46
2018-11-28T08:09:09.204Z,83.11
2018-11-28T08:11:38.389Z,83.81
2018-11-28T08:14:07.525Z,84.32
2018-11-28T08:16:36.651Z,83.86
2018-11-28T08:19:06.232Z,83.53
2018-11-28T08:21:35.484Z,83.28
2018-11-28T08:24:04.864Z,83.68
2018-11-28T08:26:34.000Z,84.33
2018-11-28T08:29:03.148Z,83.28
2018-11-28T08:31:32.300Z,83.45
2018-11-28T08:34:01.485Z,84.10
2018-11-28T08:36:30.623Z,84.05
2018-11-28T08:38:59.783Z,84.44
2018-11-28T08:41:28.923Z,83.59
2018-11-28T08:43:58.079Z,83.17
2018-11-28T08:46:27.261Z,83.67
2018-11-28T08:48:56.452Z,83.39
2018-11-28T08:51:25.693Z,83.26
2018-11-28T08:53:54.865Z,83.05
2018-11-28T08:56:23.996Z,83.03
2018-11-28T08:58:53.164Z,82.80
2018-11-28T09:01:22.304Z,82.89
2018-11-28T09:03:51.611Z,83.17
2018-11-28T09:06:20.741Z,83.32
2018-11-28T09:08:49.955Z,83.46
2018-11-28T09:11:19.085Z,82.82
2018-11-28T09:13:48.247Z,83.20
2018-11-28T09:16:17.401Z,82.99
2018-11-28T09:18:46.547Z,83.21
2018-11-28T09:21:15.692Z,82.79
2018-11-28T09:23:44.835Z,83.78
2018-11-28T09:26:19.038Z,82.58
2018-11-28T09:28:48.827Z,82.39
2018-11-28T09:31:18.044Z,81.79
2018-11-28T09:33:47.199Z,82.74
2018-11-28T09:36:16.358Z,81.04
2018-11-28T09:38:45.560Z,81.37
2018-11-28T09:41:14.720Z,80.97
2018-11-28T09:43:43.941Z,80.62
2018-11-28T09:46:13.123Z,80.29
2018-11-28T09:48:42.315Z,81.03
2018-11-28T09:51:11.525Z,79.76
2018-11-28T09:53:40.757Z,80.52
2018-11-28T09:56:09.935Z,80.58
2018-11-28T09:58:39.112Z,81.37
2018-11-28T10:01:08.348Z,80.55
2018-11-28T10:03:37.544Z,80.12
2018-11-28T10:06:06.766Z,79.80
2018-11-28T10:08:35.929Z,79.26
2018-11-28T10:11:05.716Z,79.57
2018-11-28T10:13:34.859Z,79.87
2018-11-28T10:16:04.094Z,79.01
2018-11-28T10:18:33.324Z,79.54
2018-11-28T10:21:02.525Z,78.66
2018-11-28T10:23:31.728Z,79.05
2018-11-28T10:26:01.016Z,78.77
2018-11-28T10:28:30.219Z,79.96
2018-11-28T10:30:59.409Z,80.16
2018-11-28T10:33:28.644Z,79.89
2018-11-28T10:35:58.853Z,79.31
2018-11-28T10:38:28.049Z,79.61
2018-11-28T10:40:57.239Z,79.30
2018-11-28T10:43:26.497Z,79.67
2018-11-28T10:46:02.349Z,78.38
2018-11-28T10:48:31.583Z,78.32
2018-11-28T10:51:00.790Z,78.57
2018-11-28T10:53:29.975Z,78.61
2018-11-28T10:55:59.232Z,78.08
2018-11-28T10:58:28.412Z,78.32
2018-11-28T11:01:02.981Z,78.61
2018-11-28T11:04:39.372Z,78.62
2018-11-28T11:07:13.835Z,78.73
2018-11-28T11:09:48.226Z,79.45
2018-11-28T11:12:22.587Z,78.68
2018-11-28T11:14:51.784Z,78.65
2018-11-28T11:17:21.100Z,78.23
2018-11-28T11:19:50.263Z,78.03
2018-11-28T11:22:19.423Z,78.07
2018-11-28T11:24:48.583Z,77.92
2018-11-28T11:27:17.784Z,78.30
2018-11-28T11:29:47.028Z,77.61
2018-11-28T11:32:16.240Z,77.12
2018-11-28T11:34:45.391Z,77.98
2018-11-28T11:37:14.643Z,76.05
2018-11-28T11:39:43.838Z,76.05
2018-11-28T11:42:13.183Z,76.19
2018-11-28T11:44:42.352Z,77.21
2018-11-28T11:47:11.579Z,76.88
2018-11-28T11:49:40.739Z,76.97
2018-11-28T11:52:10.056Z,78.14
2018-11-28T11:54:39.232Z,78.72
2018-11-28T11:57:08.400Z,78.28
2018-11-28T11:59:37.596Z,78.36
2018-11-28T12:02:07.149Z,78.91
2018-11-28T12:04:36.340Z,78.46
2018-11-28T12:07:05.537Z,78.88
2018-11-28T12:09:34.761Z,78.26
2018-11-28T12:12:03.974Z,78.67
2018-11-28T12:14:33.214Z,78.87
2018-11-28T12:17:02.444Z,78.74
2018-11-28T12:19:31.625Z,78.50
2018-11-28T12:22:00.843Z,78.50
2018-11-28T12:24:30.108Z,78.69
2018-11-28T12:27:00.077Z,79.06
2018-11-28T12:29:28.543Z,78.20
2018-11-28T12:31:57.813Z,78.69
2018-11-28T12:34:26.995Z,78.88
2018-11-28T12:36:56.219Z,78.94
2018-11-28T12:39:25.437Z,79.65
2018-11-28T12:41:54.620Z,79.55
2018-11-28T12:44:23.795Z,79.98
2018-11-28T12:46:53.014Z,79.56
2018-11-28T12:49:22.209Z,79.40
2018-11-28T12:51:51.384Z,79.10
2018-11-28T12:54:20.571Z,79.11
2018-11-28T12:56:49.781Z,79.50
2018-11-28T12:59:18.984Z,79.77
2018-11-28T13:01:48.215Z,79.48
2018-11-28T13:04:17.444Z,79.00
2018-11-28T13:06:46.651Z,79.66
2018-11-28T13:09:15.836Z,79.19
2018-11-28T13:11:45.047Z,79.30
2018-11-28T13:14:14.275Z,78.62
2018-11-28T13:16:43.546Z,78.91
2018-11-28T13:19:12.766Z,78.94
2018-11-28T13:21:41.951Z,80.11
2018-11-28T13:24:11.122Z,79.21
2018-11-28T13:26:40.327Z,79.20
2018-11-28T13:29:09.521Z,80.01
2018-11-28T13:31:38.696Z,80.83
2018-11-28T13:34:07.875Z,79.95
2018-11-28T13:36:37.028Z,82.78
2018-11-28T13:39:07.620Z,81.18
2018-11-28T13:41:36.763Z,80.15
2018-11-28T13:44:06.170Z,78.93
2018-11-28T13:46:35.375Z,79.93
2018-11-28T13:49:04.960Z,79.33
2018-11-28T13:51:34.003Z,79.39
2018-11-28T13:54:20.708Z,78.87
2018-11-28T13:57:00.686Z,79.55
2018-11-28T13:59:01.619Z,79.56
2018-11-28T14:01:30.786Z,79.48
2018-11-28T14:03:59.930Z,80.24
2018-11-28T14:06:29.099Z,80.35
2018-11-28T14:08:58.316Z,79.58
2018-11-28T14:11:27.531Z,80.12
2018-11-28T14:13:56.687Z,79.74
2018-11-28T14:16:26.035Z,79.08
2018-11-28T14:18:55.355Z,78.47
2018-11-28T14:21:24.669Z,79.06
2018-11-28T14:23:53.824Z,79.74
2018-11-28T14:26:23.026Z,79.87
2018-11-28T14:28:52.277Z,80.16
2018-11-28T14:31:21.447Z,80.56
2018-11-28T14:33:51.003Z,80.77
2018-11-28T14:36:20.036Z,80.30
2018-11-28T14:38:49.213Z,80.34
2018-11-28T14:41:24.980Z,80.39
2018-11-28T14:43:54.135Z,80.13
2018-11-28T14:46:23.317Z,80.04
2018-11-28T14:48:52.484Z,80.11
2018-11-28T14:51:21.688Z,79.65
2018-11-28T14:53:50.840Z,79.45
2018-11-28T14:56:20.111Z,80.49
2018-11-28T14:58:49.610Z,80.71
2018-11-28T15:01:18.857Z,79.41
2018-11-28T15:03:48.374Z,79.32
2018-11-28T15:06:26.502Z,79.94
2018-11-28T15:09:59.913Z,79.74
2018-11-28T15:12:30.809Z,79.56
2018-11-28T15:15:00.080Z,79.42
2018-11-28T15:17:29.301Z,79.30
2018-11-28T15:19:58.457Z,79.39
2018-11-28T15:22:27.679Z,79.97
2018-11-28T15:24:56.836Z,79.04
2018-11-28T15:27:26.116Z,79.29
2018-11-28T15:29:55.279Z,79.48
2018-11-28T15:32:24.452Z,79.20
2018-11-28T15:34:57.887Z,79.49
2018-11-28T15:37:22.797Z,79.55
2018-11-28T15:39:55.812Z,79.59
2018-11-28T15:42:21.101Z,79.68
2018-11-28T15:44:50.244Z,79.59
2018-11-28T15:47:19.379Z,79.34
2018-11-28T15:49:48.558Z,79.42
2018-11-28T15:52:17.704Z,79.08
2018-11-28T15:54:46.876Z,79.61
2018-11-28T15:57:16.056Z,79.92
2018-11-28T15:59:45.255Z,77.94
2018-11-28T16:02:14.416Z,77.83
2018-11-28T16:04:43.551Z,78.55
2018-11-28T16:07:12.751Z,77.39
2018-11-28T16:09:47.191Z,78.31
2018-11-28T16:12:16.468Z,78.38
2018-11-28T16:14:45.620Z,77.83
2018-11-28T16:17:14.864Z,78.51
2018-11-28T16:19:44.084Z,79.02
2018-11-28T16:22:13.256Z,78.98
2018-11-28T16:24:42.468Z,78.76
2018-11-28T16:27:11.672Z,79.55
2018-11-28T16:29:40.846Z,79.56
2018-11-28T16:32:10.043Z,79.72
2018-11-28T16:34:39.231Z,78.80
2018-11-28T16:37:08.444Z,79.62
2018-11-28T16:39:37.699Z,80.26
2018-11-28T16:42:06.964Z,80.11
2018-11-28T16:44:36.157Z,78.94
2018-11-28T16:47:05.609Z,79.13
2018-11-28T16:49:34.865Z,79.39
2018-11-28T16:52:04.047Z,79.36
2018-11-28T16:54:33.252Z,79.38
2018-11-28T16:57:02.393Z,79.60
2018-11-28T16:59:31.559Z,79.62
2018-11-28T17:02:00.699Z,79.73
2018-11-28T17:04:29.942Z,80.06
2018-11-28T17:06:59.138Z,79.66
2018-11-28T17:09:28.263Z,79.32
2018-11-28T17:11:57.415Z,79.19
2018-11-28T17:14:26.614Z,79.57
2018-11-28T17:16:55.800Z,79.67
2018-11-28T17:19:24.972Z,79.51
2018-11-28T17:21:54.131Z,78.92
2018-11-28T17:24:23.287Z,79.45
2018-11-28T17:26:52.496Z,79.13
2018-11-28T17:29:21.685Z,79.31
2018-11-28T17:31:50.888Z,79.03
2018-11-28T17:34:20.125Z,78.76
2018-11-28T17:36:49.295Z,79.14
2018-11-28T17:39:18.480Z,79.24
2018-11-28T17:41:47.685Z,79.54
2018-11-28T17:44:16.820Z,79.93
2018-11-28T17:46:45.981Z,79.76
2018-11-28T17:49:15.165Z,79.53
2018-11-28T17:51:44.459Z,80.32
2018-11-28T17:54:13.623Z,79.61
2018-11-28T17:56:42.872Z,79.73
2018-11-28T17:59:12.077Z,80.03
2018-11-28T18:01:42.241Z,79.35
2018-11-28T18:04:10.454Z,79.27
2018-11-28T18:06:39.693Z,79.92
2018-11-28T18:09:11.832Z,80.34
2018-11-28T18:11:41.058Z,80.77
2018-11-28T18:14:10.261Z,80.77
2018-11-28T18:16:39.442Z,79.71
2018-11-28T18:19:08.639Z,79.82
2018-11-28T18:21:37.856Z,79.72
2018-11-28T18:24:07.020Z,80.76
2018-11-28T18:26:36.196Z,80.35
2018-11-28T18:29:05.505Z,81.19
2018-11-28T18:31:34.695Z,80.78
2018-11-28T18:34:03.891Z,80.99
2018-11-28T18:36:32.992Z,82.04
2018-11-28T18:39:02.157Z,82.26
2018-11-28T18:41:31.293Z,82.37
2018-11-28T18:44:07.595Z,81.02
2018-11-28T18:46:36.928Z,81.57
2018-11-28T18:49:06.252Z,81.54
2018-11-28T18:51:35.433Z,81.25
2018-11-28T18:54:04.648Z,81.57
2018-11-28T18:56:33.815Z,81.72
2018-11-28T18:59:02.960Z,81.63
2018-11-28T19:01:32.113Z,80.76
2018-11-28T19:04:01.240Z,81.21
2018-11-28T19:06:30.400Z,80.85
2018-11-28T19:08:59.680Z,80.91
2018-11-28T19:11:28.711Z,81.47
2018-11-28T19:13:57.967Z,81.80
2018-11-28T19:16:27.144Z,81.60
2018-11-28T19:18:56.295Z,82.56
2018-11-28T19:21:25.539Z,81.67
2018-11-28T19:23:54.722Z,81.61
2018-11-28T19:26:23.944Z,81.65
2018-11-28T19:28:53.132Z,81.31
2018-11-28T19:31:22.365Z,81.63
2018-11-28T19:33:52.120Z,81.14
2018-11-28T19:36:21.256Z,81.07
2018-11-28T19:38:50.392Z,80.91
2018-11-28T19:41:25.654Z,80.87
2018-11-28T19:43:54.961Z,81.25
2018-11-28T19:46:24.119Z,81.55
2018-11-28T19:48:53.275Z,81.31
2018-11-28T19:51:22.465Z,81.92
2018-11-28T19:53:51.607Z,80.90
2018-11-28T19:56:20.833Z,81.44
2018-11-28T19:58:50.000Z,81.66
2018-11-28T20:01:19.127Z,81.90
2018-11-28T20:03:48.290Z,81.67
2018-11-28T20:06:17.510Z,81.66
2018-11-28T20:08:46.867Z,82.08
2018-11-28T20:11:16.096Z,81.67
2018-11-28T20:13:45.329Z,81.52
2018-11-28T20:18:44.709Z,81.18
2018-11-28T20:23:43.136Z,80.71
2018-11-28T20:26:12.367Z,81.52
2018-11-28T20:28:41.531Z,81.92
2018-11-28T20:31:10.696Z,81.81
2018-11-28T20:33:39.854Z,81.72
2018-11-28T20:36:09.028Z,81.83
2018-11-28T20:38:39.266Z,82.13
2018-11-28T20:41:08.442Z,82.65
2018-11-28T20:43:37.831Z,80.69
2018-11-28T20:46:07.627Z,86.38
2018-11-28T20:48:36.768Z,81.65
2018-11-28T20:51:06.376Z,81.41
2018-11-28T20:53:35.549Z,81.92
2018-11-28T20:56:04.732Z,81.38
2018-11-28T20:58:33.954Z,82.17
2018-11-28T21:01:03.537Z,82.21
2018-11-28T21:03:32.356Z,81.98
2018-11-28T21:06:01.554Z,81.13
2018-11-28T21:08:30.708Z,81.15
2018-11-28T21:10:59.945Z,80.48
2018-11-28T21:13:29.185Z,80.23
2018-11-28T21:15:58.478Z,80.51
2018-11-28T21:18:27.639Z,80.59
2018-11-28T21:20:56.803Z,80.43
2018-11-28T21:23:26.569Z,80.15
2018-11-28T21:25:55.740Z,79.75
2018-11-28T21:28:25.041Z,80.37
2018-11-28T21:30:54.354Z,80.83
2018-11-28T21:33:23.547Z,80.15
2018-11-28T21:35:53.316Z,79.99
2018-11-28T21:38:22.500Z,80.52
2018-11-28T21:40:51.820Z,80.11
2018-11-28T21:43:20.998Z,79.98
2018-11-28T21:45:50.234Z,80.85
2018-11-28T21:48:19.471Z,79.79
2018-11-28T21:50:48.644Z,80.68
2018-11-28T21:53:17.814Z,80.57
2018-11-28T21:55:47.077Z,80.47
2018-11-28T21:58:16.385Z,80.46
2018-11-28T22:00:45.628Z,80.35
2018-11-28T22:03:14.899Z,79.51
2018-11-28T22:05:44.060Z,78.97
2018-11-28T22:08:13.345Z,79.89
2018-11-28T22:10:42.468Z,79.82
2018-11-28T22:13:11.732Z,79.92
2018-11-28T22:15:41.000Z,80.68
2018-11-28T22:18:10.551Z,80.77
2018-11-28T22:20:39.775Z,80.57
2018-11-28T22:23:09.139Z,80.67
2018-11-28T22:25:38.383Z,80.79
2018-11-28T22:28:08.193Z,80.78
2018-11-28T22:30:37.517Z,80.14
2018-11-28T22:33:08.477Z,80.50
2018-11-28T22:35:37.803Z,80.56
2018-11-28T22:38:07.277Z,80.15
2018-11-28T22:40:36.516Z,81.02
2018-11-28T22:43:05.840Z,81.60
2018-11-28T22:45:35.701Z,80.95
2018-11-28T22:48:04.976Z,81.35
2018-11-28T22:50:34.190Z,81.50
2018-11-28T22:53:03.420Z,81.59
2018-11-28T22:55:32.593Z,81.71
2018-11-28T22:58:01.975Z,82.31
2018-11-28T23:00:36.583Z,81.87
2018-11-28T23:03:08.825Z,80.97
2018-11-28T23:05:45.836Z,80.99
2018-11-28T23:08:16.488Z,81.80
2018-11-28T23:10:45.778Z,80.94
2018-11-28T23:13:16.614Z,81.54
2018-11-28T23:15:45.826Z,81.65
2018-11-28T23:18:15.047Z,81.08
2018-11-28T23:20:45.373Z,80.98
2018-11-28T23:23:13.525Z,81.12
2018-11-28T23:25:42.736Z,81.21
2018-11-28T23:28:11.972Z,80.85
2018-11-28T23:30:41.118Z,80.29
2018-11-28T23:33:15.990Z,80.78
2018-11-28T23:35:42.719Z,80.60
2018-11-28T23:38:11.989Z,80.91
2018-11-28T23:40:41.191Z,80.04
2018-11-28T23:43:10.513Z,81.34
2018-11-28T23:45:39.695Z,81.25
2018-11-28T23:48:08.984Z,81.55
2018-11-28T23:50:38.293Z,80.50
2018-11-28T23:53:07.598Z,80.47
2018-11-28T23:55:36.803Z,80.88
2018-11-28T23:58:06.267Z,81.57
